カリーニングラード の空港の天気 - METARとTAF

フラブロヴォ空港 ( UMKK / KGD ) - ロシア カリーニングラード
飛行場実況気象(Metar)
観測時間07/20 13:00 EET (07/20 11:00 UTC)
風向・風速北東 4m/s
視程10km以上
天気現象
なし
気温24℃
湿度54%
気圧1016hPa
METARUMKK 201100Z 04004MPS CAVOK 24/14 Q1016 R06/60D NOSIG RMK QFE760/1014
過去の天気等 Google飛行場航空写真 Wunderground天気予報

過去48時間のMETAR

飛行場予報(TAF)
発表時間: 7/20 09:57 EET (7/20 07:57 UTC)
予報対象時間: 20日11時 EET ~ 21日11時 EET
風向・風速北東 3m/s
視程10km以上
全天の4割程度の雲 雲底高度 910m
20日11時 EET ~ 20日18時 EET に一時的に
風向・風速北北東 7m/s
20日21時 EET ~ 20日23時 EET に徐々に
風向・風速南東 3m/s
21日7時 EET ~ 21日9時 EET に徐々に
風向・風速南 5m/s 瞬間風速 10m/s
全天の8割程度の雲 雲底高度 910m
TAF UMKK 200757Z 2009/2109 04003MPS 9999 SCT030
TEMPO 2009/2016 02007MPS
BECMG 2019/2021 14003MPS
BECMG 2105/2107 18005G10MPS BKN030